sensor_id;sensor_type;location;lat;lon;timestamp;temperature;humidity
18502;DHT22;68437;52.236;5.710;2024-03-02T00:01:39;8.40;99.90
18502;DHT22;68437;52.236;5.710;2024-03-02T00:04:07;8.40;99.90
18502;DHT22;68437;52.236;5.710;2024-03-02T00:06:34;8.50;99.90
18502;DHT22;68437;52.236;5.710;2024-03-02T00:09:03;8.50;99.90
18502;DHT22;68437;52.236;5.710;2024-03-02T00:11:29;8.50;99.90
18502;DHT22;68437;52.236;5.710;2024-03-02T00:13:58;8.50;99.90
18502;DHT22;68437;52.236;5.710;2024-03-02T00:16:30;8.50;99.90
18502;DHT22;68437;52.236;5.710;2024-03-02T00:18:58;8.50;99.90
18502;DHT22;68437;52.236;5.710;2024-03-02T00:21:27;8.60;99.90
18502;DHT22;68437;52.236;5.710;2024-03-02T00:23:58;8.60;99.90
18502;DHT22;68437;52.236;5.710;2024-03-02T00:26:26;8.60;99.90
18502;DHT22;68437;52.236;5.710;2024-03-02T00:28:55;8.60;99.90
18502;DHT22;68437;52.236;5.710;2024-03-02T00:31:22;8.70;99.90
18502;DHT22;68437;52.236;5.710;2024-03-02T00:33:50;8.70;99.90
18502;DHT22;68437;52.236;5.710;2024-03-02T00:36:24;8.70;99.90
18502;DHT22;68437;52.236;5.710;2024-03-02T00:38:52;8.70;99.90
18502;DHT22;68437;52.236;5.710;2024-03-02T00:41:22;8.70;99.90
18502;DHT22;68437;52.236;5.710;2024-03-02T00:43:57;8.70;99.90
18502;DHT22;68437;52.236;5.710;2024-03-02T00:46:25;8.70;99.90
18502;DHT22;68437;52.236;5.710;2024-03-02T00:48:54;8.70;99.90
18502;DHT22;68437;52.236;5.710;2024-03-02T00:51:22;8.70;99.90
18502;DHT22;68437;52.236;5.710;2024-03-02T00:53:49;8.70;99.90
18502;DHT22;68437;52.236;5.710;2024-03-02T00:56:16;8.70;99.90
18502;DHT22;68437;52.236;5.710;2024-03-02T00:58:43;8.80;99.90
18502;DHT22;68437;52.236;5.710;2024-03-02T01:01:11;8.80;99.90
18502;DHT22;68437;52.236;5.710;2024-03-02T01:03:39;8.80;99.90
18502;DHT22;68437;52.236;5.710;2024-03-02T01:06:07;8.90;99.90
18502;DHT22;68437;52.236;5.710;2024-03-02T01:08:34;8.90;99.90
18502;DHT22;68437;52.236;5.710;2024-03-02T01:11:01;8.90;99.90
18502;DHT22;68437;52.236;5.710;2024-03-02T01:13:28;8.90;99.90
18502;DHT22;68437;52.236;5.710;2024-03-02T01:15:55;8.90;99.90
18502;DHT22;68437;52.236;5.710;2024-03-02T01:18:25;8.90;99.90
18502;DHT22;68437;52.236;5.710;2024-03-02T01:20:52;8.90;99.90
18502;DHT22;68437;52.236;5.710;2024-03-02T01:23:24;8.90;99.90
18502;DHT22;68437;52.236;5.710;2024-03-02T01:25:51;8.80;99.90
18502;DHT22;68437;52.236;5.710;2024-03-02T01:28:19;8.70;99.90
18502;DHT22;68437;52.236;5.710;2024-03-02T01:30:46;8.70;99.90
18502;DHT22;68437;52.236;5.710;2024-03-02T01:33:13;8.60;99.90
18502;DHT22;68437;52.236;5.710;2024-03-02T01:35:41;8.60;99.90
18502;DHT22;68437;52.236;5.710;2024-03-02T01:38:08;8.50;99.90
18502;DHT22;68437;52.236;5.710;2024-03-02T01:40:36;8.50;99.90
18502;DHT22;68437;52.236;5.710;2024-03-02T01:43:04;8.50;99.90
18502;DHT22;68437;52.236;5.710;2024-03-02T01:45:31;8.50;99.90
18502;DHT22;68437;52.236;5.710;2024-03-02T01:47:58;8.40;99.90
18502;DHT22;68437;52.236;5.710;2024-03-02T01:50:26;8.40;99.90
18502;DHT22;68437;52.236;5.710;2024-03-02T01:52:55;8.30;99.90
18502;DHT22;68437;52.236;5.710;2024-03-02T01:55:22;8.30;99.90
18502;DHT22;68437;52.236;5.710;2024-03-02T01:57:49;8.20;99.90
18502;DHT22;68437;52.236;5.710;2024-03-02T02:00:17;8.20;99.90
18502;DHT22;68437;52.236;5.710;2024-03-02T02:02:45;8.20;99.90
18502;DHT22;68437;52.236;5.710;2024-03-02T02:05:11;8.10;99.90
18502;DHT22;68437;52.236;5.710;2024-03-02T02:07:40;8.10;99.90
18502;DHT22;68437;52.236;5.710;2024-03-02T02:10:09;8.10;99.90
18502;DHT22;68437;52.236;5.710;2024-03-02T02:12:36;8.10;99.90
18502;DHT22;68437;52.236;5.710;2024-03-02T02:15:03;8.00;99.90
18502;DHT22;68437;52.236;5.710;2024-03-02T02:17:31;8.00;99.90
18502;DHT22;68437;52.236;5.710;2024-03-02T02:19:57;7.90;99.90
18502;DHT22;68437;52.236;5.710;2024-03-02T02:22:26;8.00;99.90
18502;DHT22;68437;52.236;5.710;2024-03-02T02:24:52;8.00;99.90
18502;DHT22;68437;52.236;5.710;2024-03-02T02:27:20;7.90;99.90
18502;DHT22;68437;52.236;5.710;2024-03-02T02:29:46;7.90;99.90
18502;DHT22;68437;52.236;5.710;2024-03-02T02:32:13;7.90;99.90
18502;DHT22;68437;52.236;5.710;2024-03-02T02:34:43;7.90;99.90
18502;DHT22;68437;52.236;5.710;2024-03-02T02:37:09;7.90;99.90
18502;DHT22;68437;52.236;5.710;2024-03-02T02:39:39;7.90;99.90
18502;DHT22;68437;52.236;5.710;2024-03-02T02:42:06;7.80;99.90
18502;DHT22;68437;52.236;5.710;2024-03-02T02:44:32;7.80;99.90
18502;DHT22;68437;52.236;5.710;2024-03-02T02:46:59;7.80;99.90
18502;DHT22;68437;52.236;5.710;2024-03-02T02:49:26;7.70;99.90
18502;DHT22;68437;52.236;5.710;2024-03-02T02:51:53;7.70;99.90
18502;DHT22;68437;52.236;5.710;2024-03-02T02:54:19;7.70;99.90
18502;DHT22;68437;52.236;5.710;2024-03-02T02:56:48;7.70;99.90
18502;DHT22;68437;52.236;5.710;2024-03-02T02:59:15;7.70;99.90
18502;DHT22;68437;52.236;5.710;2024-03-02T03:01:42;7.60;99.90
18502;DHT22;68437;52.236;5.710;2024-03-02T03:04:08;7.60;99.90
18502;DHT22;68437;52.236;5.710;2024-03-02T03:06:35;7.60;99.90
18502;DHT22;68437;52.236;5.710;2024-03-02T03:09:02;7.50;99.90
18502;DHT22;68437;52.236;5.710;2024-03-02T03:11:29;7.50;99.90
18502;DHT22;68437;52.236;5.710;2024-03-02T03:13:57;7.50;99.90
18502;DHT22;68437;52.236;5.710;2024-03-02T03:16:25;7.30;99.90
18502;DHT22;68437;52.236;5.710;2024-03-02T03:18:52;7.30;99.90
18502;DHT22;68437;52.236;5.710;2024-03-02T03:21:19;7.20;99.90
18502;DHT22;68437;52.236;5.710;2024-03-02T03:23:46;7.10;99.90
18502;DHT22;68437;52.236;5.710;2024-03-02T03:26:13;7.10;99.90
18502;DHT22;68437;52.236;5.710;2024-03-02T03:28:40;7.10;99.90
18502;DHT22;68437;52.236;5.710;2024-03-02T03:31:08;7.10;99.90
18502;DHT22;68437;52.236;5.710;2024-03-02T03:33:38;7.00;99.90
18502;DHT22;68437;52.236;5.710;2024-03-02T03:36:05;7.00;99.90
18502;DHT22;68437;52.236;5.710;2024-03-02T03:38:32;7.00;99.90
18502;DHT22;68437;52.236;5.710;2024-03-02T03:41:01;7.00;99.90
18502;DHT22;68437;52.236;5.710;2024-03-02T03:43:28;6.90;99.90
18502;DHT22;68437;52.236;5.710;2024-03-02T03:45:55;6.90;99.90
18502;DHT22;68437;52.236;5.710;2024-03-02T03:48:23;6.90;99.90
18502;DHT22;68437;52.236;5.710;2024-03-02T03:50:55;6.90;99.90
18502;DHT22;68437;52.236;5.710;2024-03-02T03:53:22;6.90;99.90
18502;DHT22;68437;52.236;5.710;2024-03-02T03:55:49;6.90;99.90
18502;DHT22;68437;52.236;5.710;2024-03-02T03:58:16;6.80;99.90
18502;DHT22;68437;52.236;5.710;2024-03-02T04:00:44;6.80;99.90
18502;DHT22;68437;52.236;5.710;2024-03-02T04:03:11;6.80;99.90
18502;DHT22;68437;52.236;5.710;2024-03-02T04:05:40;6.70;99.90
18502;DHT22;68437;52.236;5.710;2024-03-02T04:08:06;6.70;99.90
18502;DHT22;68437;52.236;5.710;2024-03-02T04:10:33;6.60;99.90
18502;DHT22;68437;52.236;5.710;2024-03-02T04:13:00;6.60;99.90
18502;DHT22;68437;52.236;5.710;2024-03-02T04:15:27;6.60;99.90
18502;DHT22;68437;52.236;5.710;2024-03-02T04:17:54;6.60;99.90
18502;DHT22;68437;52.236;5.710;2024-03-02T04:20:21;6.60;99.90
18502;DHT22;68437;52.236;5.710;2024-03-02T04:22:49;6.60;99.90
18502;DHT22;68437;52.236;5.710;2024-03-02T04:25:15;6.60;99.90
18502;DHT22;68437;52.236;5.710;2024-03-02T04:27:42;6.50;99.90
18502;DHT22;68437;52.236;5.710;2024-03-02T04:30:10;6.60;99.90
18502;DHT22;68437;52.236;5.710;2024-03-02T04:32:37;6.50;99.90
18502;DHT22;68437;52.236;5.710;2024-03-02T04:35:05;6.50;99.90
18502;DHT22;68437;52.236;5.710;2024-03-02T04:37:34;6.50;99.90
18502;DHT22;68437;52.236;5.710;2024-03-02T04:40:03;6.50;99.90
18502;DHT22;68437;52.236;5.710;2024-03-02T04:42:30;6.50;99.90
18502;DHT22;68437;52.236;5.710;2024-03-02T04:44:57;6.60;99.90
18502;DHT22;68437;52.236;5.710;2024-03-02T04:47:27;6.50;99.90
18502;DHT22;68437;52.236;5.710;2024-03-02T04:49:53;6.50;99.90
18502;DHT22;68437;52.236;5.710;2024-03-02T04:52:20;6.60;99.90
18502;DHT22;68437;52.236;5.710;2024-03-02T04:54:47;6.50;99.90
18502;DHT22;68437;52.236;5.710;2024-03-02T04:57:32;6.50;99.90
18502;DHT22;68437;52.236;5.710;2024-03-02T04:59:59;6.40;99.90
18502;DHT22;68437;52.236;5.710;2024-03-02T05:02:25;6.30;99.90
18502;DHT22;68437;52.236;5.710;2024-03-02T05:04:52;6.20;99.90
18502;DHT22;68437;52.236;5.710;2024-03-02T05:07:19;6.00;99.90
18502;DHT22;68437;52.236;5.710;2024-03-02T05:09:46;6.20;99.90
18502;DHT22;68437;52.236;5.710;2024-03-02T05:12:13;6.10;99.90
18502;DHT22;68437;52.236;5.710;2024-03-02T05:15:08;6.10;99.90
18502;DHT22;68437;52.236;5.710;2024-03-02T05:17:35;6.00;99.90
18502;DHT22;68437;52.236;5.710;2024-03-02T05:20:03;6.00;99.90
18502;DHT22;68437;52.236;5.710;2024-03-02T05:22:30;5.90;99.90
18502;DHT22;68437;52.236;5.710;2024-03-02T05:24:57;5.90;99.90
18502;DHT22;68437;52.236;5.710;2024-03-02T05:27:24;5.90;99.90
18502;DHT22;68437;52.236;5.710;2024-03-02T05:29:51;5.80;99.90
18502;DHT22;68437;52.236;5.710;2024-03-02T05:32:19;5.80;99.90
18502;DHT22;68437;52.236;5.710;2024-03-02T05:34:46;5.80;99.90
18502;DHT22;68437;52.236;5.710;2024-03-02T05:37:13;5.70;99.90
18502;DHT22;68437;52.236;5.710;2024-03-02T05:39:40;5.80;99.90
18502;DHT22;68437;52.236;5.710;2024-03-02T05:42:06;5.80;99.90
18502;DHT22;68437;52.236;5.710;2024-03-02T05:44:34;5.80;99.90
18502;DHT22;68437;52.236;5.710;2024-03-02T05:47:01;5.80;99.90
18502;DHT22;68437;52.236;5.710;2024-03-02T05:49:29;5.90;99.90
18502;DHT22;68437;52.236;5.710;2024-03-02T05:51:56;5.90;99.90
18502;DHT22;68437;52.236;5.710;2024-03-02T05:54:23;5.90;99.90
18502;DHT22;68437;52.236;5.710;2024-03-02T05:56:50;6.00;99.90
18502;DHT22;68437;52.236;5.710;2024-03-02T05:59:17;6.00;99.90
18502;DHT22;68437;52.236;5.710;2024-03-02T06:01:44;6.00;99.90
18502;DHT22;68437;52.236;5.710;2024-03-02T06:04:16;5.90;99.90
18502;DHT22;68437;52.236;5.710;2024-03-02T06:06:44;6.00;99.90
18502;DHT22;68437;52.236;5.710;2024-03-02T06:09:11;6.00;99.90
18502;DHT22;68437;52.236;5.710;2024-03-02T06:11:39;6.00;99.90
18502;DHT22;68437;52.236;5.710;2024-03-02T06:14:07;6.00;99.90
18502;DHT22;68437;52.236;5.710;2024-03-02T06:16:35;6.00;99.90
18502;DHT22;68437;52.236;5.710;2024-03-02T06:19:02;6.10;99.90
18502;DHT22;68437;52.236;5.710;2024-03-02T06:21:29;6.10;99.90
18502;DHT22;68437;52.236;5.710;2024-03-02T06:23:57;6.10;99.90
18502;DHT22;68437;52.236;5.710;2024-03-02T06:26:24;6.10;99.90
18502;DHT22;68437;52.236;5.710;2024-03-02T06:28:50;6.00;99.90
18502;DHT22;68437;52.236;5.710;2024-03-02T06:31:17;6.00;99.90
18502;DHT22;68437;52.236;5.710;2024-03-02T06:33:43;5.90;99.90
18502;DHT22;68437;52.236;5.710;2024-03-02T06:36:10;5.90;99.90
18502;DHT22;68437;52.236;5.710;2024-03-02T06:38:41;5.90;99.90
18502;DHT22;68437;52.236;5.710;2024-03-02T06:41:09;5.90;99.90
18502;DHT22;68437;52.236;5.710;2024-03-02T06:43:36;5.80;99.90
18502;DHT22;68437;52.236;5.710;2024-03-02T06:46:04;5.80;99.90
18502;DHT22;68437;52.236;5.710;2024-03-02T06:48:34;5.80;99.90
18502;DHT22;68437;52.236;5.710;2024-03-02T06:51:01;5.80;99.90
18502;DHT22;68437;52.236;5.710;2024-03-02T06:53:28;5.70;99.90
18502;DHT22;68437;52.236;5.710;2024-03-02T06:55:55;5.70;99.90
18502;DHT22;68437;52.236;5.710;2024-03-02T06:58:23;5.70;99.90
18502;DHT22;68437;52.236;5.710;2024-03-02T07:00:50;5.60;99.90
18502;DHT22;68437;52.236;5.710;2024-03-02T07:03:18;5.60;99.90
18502;DHT22;68437;52.236;5.710;2024-03-02T07:05:45;5.60;99.90
18502;DHT22;68437;52.236;5.710;2024-03-02T07:08:13;5.70;99.90
18502;DHT22;68437;52.236;5.710;2024-03-02T07:10:39;5.80;99.90
18502;DHT22;68437;52.236;5.710;2024-03-02T07:13:06;5.80;99.90
18502;DHT22;68437;52.236;5.710;2024-03-02T07:15:40;5.90;99.90
18502;DHT22;68437;52.236;5.710;2024-03-02T07:18:33;6.00;99.90
18502;DHT22;68437;52.236;5.710;2024-03-02T07:21:03;6.10;99.90
18502;DHT22;68437;52.236;5.710;2024-03-02T07:23:30;6.10;99.90
18502;DHT22;68437;52.236;5.710;2024-03-02T07:25:57;6.30;99.90
18502;DHT22;68437;52.236;5.710;2024-03-02T07:28:25;6.40;99.90
18502;DHT22;68437;52.236;5.710;2024-03-02T07:30:59;6.50;99.90
18502;DHT22;68437;52.236;5.710;2024-03-02T07:33:26;6.60;99.90
18502;DHT22;68437;52.236;5.710;2024-03-02T07:35:54;6.60;99.90
18502;DHT22;68437;52.236;5.710;2024-03-02T07:38:21;6.60;99.90
18502;DHT22;68437;52.236;5.710;2024-03-02T07:40:48;6.70;99.90
18502;DHT22;68437;52.236;5.710;2024-03-02T07:43:16;6.80;99.90
18502;DHT22;68437;52.236;5.710;2024-03-02T07:45:43;7.00;99.90
18502;DHT22;68437;52.236;5.710;2024-03-02T07:48:13;7.10;99.90
18502;DHT22;68437;52.236;5.710;2024-03-02T07:50:40;7.20;99.90
18502;DHT22;68437;52.236;5.710;2024-03-02T07:53:09;7.20;99.90
18502;DHT22;68437;52.236;5.710;2024-03-02T07:55:35;7.20;99.90
18502;DHT22;68437;52.236;5.710;2024-03-02T07:58:02;7.30;99.90
18502;DHT22;68437;52.236;5.710;2024-03-02T08:00:29;7.50;99.90
18502;DHT22;68437;52.236;5.710;2024-03-02T08:02:56;7.60;99.90
18502;DHT22;68437;52.236;5.710;2024-03-02T08:05:24;7.60;99.90
18502;DHT22;68437;52.236;5.710;2024-03-02T08:07:53;7.70;99.90
18502;DHT22;68437;52.236;5.710;2024-03-02T08:10:22;7.80;99.90
18502;DHT22;68437;52.236;5.710;2024-03-02T08:12:49;7.90;99.90
18502;DHT22;68437;52.236;5.710;2024-03-02T08:15:16;8.00;99.90
18502;DHT22;68437;52.236;5.710;2024-03-02T08:17:43;8.00;99.90
18502;DHT22;68437;52.236;5.710;2024-03-02T08:20:15;8.20;99.90
18502;DHT22;68437;52.236;5.710;2024-03-02T08:22:43;8.30;99.90
18502;DHT22;68437;52.236;5.710;2024-03-02T08:25:10;8.40;99.90
18502;DHT22;68437;52.236;5.710;2024-03-02T08:27:38;8.40;99.90
18502;DHT22;68437;52.236;5.710;2024-03-02T08:30:06;8.30;99.90
18502;DHT22;68437;52.236;5.710;2024-03-02T08:32:33;8.30;99.90
18502;DHT22;68437;52.236;5.710;2024-03-02T08:35:02;8.40;99.90
18502;DHT22;68437;52.236;5.710;2024-03-02T08:37:29;8.50;99.90
18502;DHT22;68437;52.236;5.710;2024-03-02T08:39:57;8.50;99.90
18502;DHT22;68437;52.236;5.710;2024-03-02T08:42:24;8.60;99.90
18502;DHT22;68437;52.236;5.710;2024-03-02T08:44:53;8.70;99.90
18502;DHT22;68437;52.236;5.710;2024-03-02T08:47:22;8.70;99.90
18502;DHT22;68437;52.236;5.710;2024-03-02T08:49:51;8.70;99.90
18502;DHT22;68437;52.236;5.710;2024-03-02T08:52:18;8.70;99.90
18502;DHT22;68437;52.236;5.710;2024-03-02T08:54:45;8.60;99.90
18502;DHT22;68437;52.236;5.710;2024-03-02T08:57:16;8.60;99.90
18502;DHT22;68437;52.236;5.710;2024-03-02T08:59:42;8.60;99.90
18502;DHT22;68437;52.236;5.710;2024-03-02T09:02:11;8.50;99.90
18502;DHT22;68437;52.236;5.710;2024-03-02T09:04:38;8.60;99.90
18502;DHT22;68437;52.236;5.710;2024-03-02T09:07:05;8.50;99.90
18502;DHT22;68437;52.236;5.710;2024-03-02T09:09:32;8.40;99.90
18502;DHT22;68437;52.236;5.710;2024-03-02T09:11:59;8.40;99.90
18502;DHT22;68437;52.236;5.710;2024-03-02T09:14:28;8.40;99.90
18502;DHT22;68437;52.236;5.710;2024-03-02T09:16:55;8.40;99.90
18502;DHT22;68437;52.236;5.710;2024-03-02T09:19:21;8.50;99.90
18502;DHT22;68437;52.236;5.710;2024-03-02T09:21:48;8.60;99.90
18502;DHT22;68437;52.236;5.710;2024-03-02T09:24:15;8.60;99.90
18502;DHT22;68437;52.236;5.710;2024-03-02T09:26:42;8.60;99.90
18502;DHT22;68437;52.236;5.710;2024-03-02T09:29:09;8.60;99.90
18502;DHT22;68437;52.236;5.710;2024-03-02T09:31:40;8.60;99.90
18502;DHT22;68437;52.236;5.710;2024-03-02T09:34:07;8.70;99.90
18502;DHT22;68437;52.236;5.710;2024-03-02T09:36:36;8.70;99.90
18502;DHT22;68437;52.236;5.710;2024-03-02T09:39:03;8.80;99.90
18502;DHT22;68437;52.236;5.710;2024-03-02T09:41:30;8.90;99.90
18502;DHT22;68437;52.236;5.710;2024-03-02T09:43:59;9.00;99.90
18502;DHT22;68437;52.236;5.710;2024-03-02T09:46:26;9.00;99.90
18502;DHT22;68437;52.236;5.710;2024-03-02T09:48:54;9.00;99.90
18502;DHT22;68437;52.236;5.710;2024-03-02T09:51:21;9.10;99.90
18502;DHT22;68437;52.236;5.710;2024-03-02T09:53:49;9.20;99.90
18502;DHT22;68437;52.236;5.710;2024-03-02T09:56:16;9.30;99.90
18502;DHT22;68437;52.236;5.710;2024-03-02T09:58:44;9.30;99.90
18502;DHT22;68437;52.236;5.710;2024-03-02T10:01:10;9.40;99.90
18502;DHT22;68437;52.236;5.710;2024-03-02T10:03:37;9.50;99.90
18502;DHT22;68437;52.236;5.710;2024-03-02T10:06:22;9.60;99.90
18502;DHT22;68437;52.236;5.710;2024-03-02T10:08:49;9.60;99.90
18502;DHT22;68437;52.236;5.710;2024-03-02T10:11:29;9.70;99.90
18502;DHT22;68437;52.236;5.710;2024-03-02T10:14:05;9.70;99.90
18502;DHT22;68437;52.236;5.710;2024-03-02T10:16:34;9.80;99.90
18502;DHT22;68437;52.236;5.710;2024-03-02T10:19:16;9.90;99.90
18502;DHT22;68437;52.236;5.710;2024-03-02T10:21:44;10.00;99.90
18502;DHT22;68437;52.236;5.710;2024-03-02T10:24:14;10.10;99.90
18502;DHT22;68437;52.236;5.710;2024-03-02T10:26:41;10.20;99.90
18502;DHT22;68437;52.236;5.710;2024-03-02T10:29:08;10.30;99.90
18502;DHT22;68437;52.236;5.710;2024-03-02T10:31:37;10.40;99.90
18502;DHT22;68437;52.236;5.710;2024-03-02T10:34:04;10.50;99.90
18502;DHT22;68437;52.236;5.710;2024-03-02T10:36:32;10.60;99.90
18502;DHT22;68437;52.236;5.710;2024-03-02T10:39:02;10.60;99.90
18502;DHT22;68437;52.236;5.710;2024-03-02T10:41:33;10.50;99.90
18502;DHT22;68437;52.236;5.710;2024-03-02T10:44:02;10.60;99.90
18502;DHT22;68437;52.236;5.710;2024-03-02T10:46:29;10.60;99.90
18502;DHT22;68437;52.236;5.710;2024-03-02T10:48:57;10.70;99.90
18502;DHT22;68437;52.236;5.710;2024-03-02T10:51:28;10.80;99.90
18502;DHT22;68437;52.236;5.710;2024-03-02T10:53:57;10.80;99.90
18502;DHT22;68437;52.236;5.710;2024-03-02T10:56:28;10.90;99.90
18502;DHT22;68437;52.236;5.710;2024-03-02T10:59:01;10.90;99.90
18502;DHT22;68437;52.236;5.710;2024-03-02T11:01:31;10.90;99.90
18502;DHT22;68437;52.236;5.710;2024-03-02T11:03:59;11.00;99.90
18502;DHT22;68437;52.236;5.710;2024-03-02T11:06:29;11.10;99.90
18502;DHT22;68437;52.236;5.710;2024-03-02T11:09:00;11.20;99.90
18502;DHT22;68437;52.236;5.710;2024-03-02T11:11:36;11.20;99.90
18502;DHT22;68437;52.236;5.710;2024-03-02T11:14:07;11.30;99.90
18502;DHT22;68437;52.236;5.710;2024-03-02T11:16:35;11.40;99.90
18502;DHT22;68437;52.236;5.710;2024-03-02T11:19:04;11.40;99.90
18502;DHT22;68437;52.236;5.710;2024-03-02T11:21:33;11.40;99.90
18502;DHT22;68437;52.236;5.710;2024-03-02T11:24:00;11.40;99.90
18502;DHT22;68437;52.236;5.710;2024-03-02T11:26:28;11.40;99.90
18502;DHT22;68437;52.236;5.710;2024-03-02T11:28:58;11.40;99.90
18502;DHT22;68437;52.236;5.710;2024-03-02T11:31:58;11.50;99.90
18502;DHT22;68437;52.236;5.710;2024-03-02T11:34:31;11.60;99.90
18502;DHT22;68437;52.236;5.710;2024-03-02T11:36:59;11.70;99.90
18502;DHT22;68437;52.236;5.710;2024-03-02T11:39:26;11.80;99.90
18502;DHT22;68437;52.236;5.710;2024-03-02T11:41:55;11.80;99.90
18502;DHT22;68437;52.236;5.710;2024-03-02T11:44:24;11.90;99.90
18502;DHT22;68437;52.236;5.710;2024-03-02T11:46:52;11.90;99.90
18502;DHT22;68437;52.236;5.710;2024-03-02T11:49:36;12.00;99.90
18502;DHT22;68437;52.236;5.710;2024-03-02T11:52:05;12.10;99.90
18502;DHT22;68437;52.236;5.710;2024-03-02T11:54:33;12.20;99.90
18502;DHT22;68437;52.236;5.710;2024-03-02T11:57:01;12.30;99.90
18502;DHT22;68437;52.236;5.710;2024-03-02T11:59:30;12.50;99.90
18502;DHT22;68437;52.236;5.710;2024-03-02T12:01:58;12.40;99.90
18502;DHT22;68437;52.236;5.710;2024-03-02T12:04:25;12.50;99.90
18502;DHT22;68437;52.236;5.710;2024-03-02T12:06:54;12.50;99.90
18502;DHT22;68437;52.236;5.710;2024-03-02T12:09:22;12.60;99.90
18502;DHT22;68437;52.236;5.710;2024-03-02T12:12:01;12.70;99.90
18502;DHT22;68437;52.236;5.710;2024-03-02T12:14:30;12.70;99.90
18502;DHT22;68437;52.236;5.710;2024-03-02T12:16:57;12.80;99.90
18502;DHT22;68437;52.236;5.710;2024-03-02T12:19:29;12.90;99.90
18502;DHT22;68437;52.236;5.710;2024-03-02T12:21:56;12.90;99.90
18502;DHT22;68437;52.236;5.710;2024-03-02T12:24:24;12.90;99.90
18502;DHT22;68437;52.236;5.710;2024-03-02T12:26:51;12.60;99.90
18502;DHT22;68437;52.236;5.710;2024-03-02T12:29:19;12.50;99.90
18502;DHT22;68437;52.236;5.710;2024-03-02T12:31:47;12.30;99.90
18502;DHT22;68437;52.236;5.710;2024-03-02T12:34:16;12.20;99.90
18502;DHT22;68437;52.236;5.710;2024-03-02T12:36:44;12.30;99.90
18502;DHT22;68437;52.236;5.710;2024-03-02T12:39:13;12.50;99.90
18502;DHT22;68437;52.236;5.710;2024-03-02T12:41:40;12.70;99.90
18502;DHT22;68437;52.236;5.710;2024-03-02T12:44:07;12.70;99.90
18502;DHT22;68437;52.236;5.710;2024-03-02T12:46:34;12.70;99.90
18502;DHT22;68437;52.236;5.710;2024-03-02T12:49:08;12.60;99.90
18502;DHT22;68437;52.236;5.710;2024-03-02T12:51:37;12.60;99.90
18502;DHT22;68437;52.236;5.710;2024-03-02T12:54:05;12.60;99.90
18502;DHT22;68437;52.236;5.710;2024-03-02T12:56:32;12.60;99.90
18502;DHT22;68437;52.236;5.710;2024-03-02T12:58:59;12.70;99.90
18502;DHT22;68437;52.236;5.710;2024-03-02T13:01:30;12.90;99.90
18502;DHT22;68437;52.236;5.710;2024-03-02T13:03:59;13.00;99.90
18502;DHT22;68437;52.236;5.710;2024-03-02T13:06:27;13.20;99.90
18502;DHT22;68437;52.236;5.710;2024-03-02T13:08:54;13.30;99.90
18502;DHT22;68437;52.236;5.710;2024-03-02T13:11:22;13.20;99.90
18502;DHT22;68437;52.236;5.710;2024-03-02T13:13:50;13.00;99.90
18502;DHT22;68437;52.236;5.710;2024-03-02T13:16:18;13.10;99.90
18502;DHT22;68437;52.236;5.710;2024-03-02T13:18:45;13.30;99.90
18502;DHT22;68437;52.236;5.710;2024-03-02T13:21:12;13.50;99.90
18502;DHT22;68437;52.236;5.710;2024-03-02T13:23:40;13.60;99.90
18502;DHT22;68437;52.236;5.710;2024-03-02T13:26:07;13.70;99.90
18502;DHT22;68437;52.236;5.710;2024-03-02T13:28:36;13.70;99.90
18502;DHT22;68437;52.236;5.710;2024-03-02T13:31:04;13.70;99.90
18502;DHT22;68437;52.236;5.710;2024-03-02T13:33:31;13.80;99.90
18502;DHT22;68437;52.236;5.710;2024-03-02T13:35:58;13.80;99.90
18502;DHT22;68437;52.236;5.710;2024-03-02T13:38:25;13.90;99.90
18502;DHT22;68437;52.236;5.710;2024-03-02T13:40:53;13.80;99.90
18502;DHT22;68437;52.236;5.710;2024-03-02T13:43:20;13.90;99.90
18502;DHT22;68437;52.236;5.710;2024-03-02T13:45:49;13.90;99.90
18502;DHT22;68437;52.236;5.710;2024-03-02T13:48:17;13.90;99.90
18502;DHT22;68437;52.236;5.710;2024-03-02T13:50:44;13.90;99.90
18502;DHT22;68437;52.236;5.710;2024-03-02T13:53:12;13.90;99.90
18502;DHT22;68437;52.236;5.710;2024-03-02T13:55:41;14.10;99.90
18502;DHT22;68437;52.236;5.710;2024-03-02T13:58:10;14.00;99.90
18502;DHT22;68437;52.236;5.710;2024-03-02T14:00:37;14.10;99.90
18502;DHT22;68437;52.236;5.710;2024-03-02T14:03:05;14.10;99.90
18502;DHT22;68437;52.236;5.710;2024-03-02T14:05:32;14.20;99.90
18502;DHT22;68437;52.236;5.710;2024-03-02T14:07:59;14.30;99.90
18502;DHT22;68437;52.236;5.710;2024-03-02T14:10:26;14.30;99.90
18502;DHT22;68437;52.236;5.710;2024-03-02T14:12:53;14.10;99.90
18502;DHT22;68437;52.236;5.710;2024-03-02T14:15:22;14.00;99.90
18502;DHT22;68437;52.236;5.710;2024-03-02T14:17:49;13.90;99.90
18502;DHT22;68437;52.236;5.710;2024-03-02T14:20:17;13.80;99.90
18502;DHT22;68437;52.236;5.710;2024-03-02T14:22:48;13.70;99.90
18502;DHT22;68437;52.236;5.710;2024-03-02T14:25:14;13.50;99.90
18502;DHT22;68437;52.236;5.710;2024-03-02T14:27:42;13.40;99.90
18502;DHT22;68437;52.236;5.710;2024-03-02T14:30:09;13.40;99.90
18502;DHT22;68437;52.236;5.710;2024-03-02T14:32:39;13.40;99.90
18502;DHT22;68437;52.236;5.710;2024-03-02T14:35:09;13.40;99.90
18502;DHT22;68437;52.236;5.710;2024-03-02T14:37:37;13.20;99.90
18502;DHT22;68437;52.236;5.710;2024-03-02T14:40:04;13.20;99.90
18502;DHT22;68437;52.236;5.710;2024-03-02T14:42:32;13.20;99.90
18502;DHT22;68437;52.236;5.710;2024-03-02T14:44:59;13.10;99.90
18502;DHT22;68437;52.236;5.710;2024-03-02T14:47:27;13.00;99.90
18502;DHT22;68437;52.236;5.710;2024-03-02T14:49:56;13.00;99.90
18502;DHT22;68437;52.236;5.710;2024-03-02T14:52:23;12.90;99.90
18502;DHT22;68437;52.236;5.710;2024-03-02T14:54:51;12.90;99.90
18502;DHT22;68437;52.236;5.710;2024-03-02T14:57:20;12.90;99.90
18502;DHT22;68437;52.236;5.710;2024-03-02T14:59:49;13.00;99.90
18502;DHT22;68437;52.236;5.710;2024-03-02T15:02:16;13.00;99.90
18502;DHT22;68437;52.236;5.710;2024-03-02T15:04:43;12.90;99.90
18502;DHT22;68437;52.236;5.710;2024-03-02T15:07:12;12.90;99.90
18502;DHT22;68437;52.236;5.710;2024-03-02T15:09:40;12.90;99.90
18502;DHT22;68437;52.236;5.710;2024-03-02T15:12:07;12.90;99.90
18502;DHT22;68437;52.236;5.710;2024-03-02T15:14:36;12.90;99.90
18502;DHT22;68437;52.236;5.710;2024-03-02T15:17:03;12.90;99.90
18502;DHT22;68437;52.236;5.710;2024-03-02T15:19:30;12.90;99.90
18502;DHT22;68437;52.236;5.710;2024-03-02T15:21:57;13.00;99.90
18502;DHT22;68437;52.236;5.710;2024-03-02T15:24:28;12.90;99.90
18502;DHT22;68437;52.236;5.710;2024-03-02T15:26:55;13.00;99.90
18502;DHT22;68437;52.236;5.710;2024-03-02T15:29:23;13.00;99.90
18502;DHT22;68437;52.236;5.710;2024-03-02T15:31:54;12.90;99.90
18502;DHT22;68437;52.236;5.710;2024-03-02T15:34:21;12.80;99.90
18502;DHT22;68437;52.236;5.710;2024-03-02T15:36:48;12.90;99.90
18502;DHT22;68437;52.236;5.710;2024-03-02T15:39:15;13.00;99.90
18502;DHT22;68437;52.236;5.710;2024-03-02T15:41:45;13.00;99.90
18502;DHT22;68437;52.236;5.710;2024-03-02T15:44:12;12.90;99.90
18502;DHT22;68437;52.236;5.710;2024-03-02T15:46:38;13.00;99.90